Historique des mesures à Cassis (13260), France
Quotidien Résumé Fevrier 13, 2017 Unités:  Métrique    US   Métrique/US
« Précédent (Jour)
Suivant (Jour) »
Quotidien Hebdomadaire Mensuel Annuel Période au choix
  Maximum: Minimum: Moyenne:
Température: TemperatureC °C 13.8 °C 14 °C
Point de rosée: DewpointC °C 6.3 °C 6.7 °C
Humidité: Humidity % 57 % 58 %
Vitesse du vent: 0 km/h 0 km/h 13.4 km/h
Rafales: 0 km/h - -
Vent:- - ESE
Pression: PressurehPa hPa 1015.1 hPa -
Précipitations: 0.0 mm    
Historical Graphs
 
 
Mesures pour : Fevrier 13, 2017
Heure Temperature Point de rosée Pression Vent Vitesse du vent Rafales Humidité Pluie (par heure) Conditions
TemperatureC °C DewpointC °C PressurehPa hPa Calm     Humidity % HourlyPrecipMM mm SoftwareType W/m2
00:11 13.9 °C 6.9 °C 1016.8 hPa SE 11.6 km/h 36 km/h 63 % 0.0 mm open2300-1.11 W/m2
01:10 13.9 °C 6.9 °C 1016.8 hPa SSE 17.9 km/h 23.8 km/h 63 % 0.0 mm open2300-1.11 W/m2
02:11 13.8 °C 6.8 °C 1017.5 hPa ESE 14.5 km/h 17.9 km/h 63 % 0.0 mm open2300-1.11 W/m2
03:10 13.9 °C 6.9 °C 1016.8 hPa NE 16.3 km/h 25.4 km/h 63 % 0.0 mm open2300-1.11 W/m2
04:11 13.9 °C 6.9 °C 1016.1 hPa SSE 7.6 km/h 22 km/h 63 % 0.0 mm open2300-1.11 W/m2
05:10 13.8 °C 7.1 °C 1016.1 hPa East 14.5 km/h 14.5 km/h 64 % 0.0 mm open2300-1.11 W/m2
06:11 13.8 °C 7.1 °C 1016.1 hPa ENE 5.6 km/h 36.5 km/h 64 % 0.0 mm open2300-1.11 W/m2
07:10 13.8 °C 6.8 °C 1016.1 hPa SE 34.8 km/h 39.9 km/h 63 % 0.0 mm open2300-1.11 W/m2
08:11 13.8 °C 6.8 °C 1016.5 hPa SSE 5.1 km/h 25.4 km/h 63 % 0.0 mm open2300-1.11 W/m2
09:10 14.1 °C 7.2 °C 1016.1 hPa ESE 15 km/h 16.3 km/h 63 % 0.0 mm open2300-1.11 W/m2
10:11 14.6 °C 7.2 °C 1016.1 hPa ESE 11.6 km/h 11.6 km/h 61 % 0.0 mm open2300-1.11 W/m2
11:10 15.1 °C 7.1 °C 1016.5 hPa NE 29.5 km/h 33.6 km/h 59 % 0.0 mm open2300-1.11 W/m2
12:11 15.7 °C 7.7 °C 1016.8 hPa ESE 16.3 km/h 19.2 km/h 59 % 0.0 mm open2300-1.11 W/m2
13:10 15.8 °C 7.8 °C 1015.8 hPa SSE 5.6 km/h 23 km/h 59 % 0.0 mm open2300-1.11 W/m2
14:11 15.9 °C 7.4 °C 1015.5 hPa ESE 32.3 km/h 35.2 km/h 57 % 0.0 mm open2300-1.11 W/m2
15:10 16.1 °C 7.6 °C 1015.5 hPa SE 14 km/h 21.6 km/h 57 % 0.0 mm open2300-1.11 W/m2
16:11 15.5 °C 7.3 °C 1015.1 hPa East 14 km/h 30.1 km/h 58 % 0.0 mm open2300-1.11 W/m2
17:10 14.9 °C 6.7 °C 1015.1 hPa Calm   20.3 km/h 58 % 0.0 mm open2300-1.11 W/m2
18:11 14.7 °C 6.5 °C 1015.5 hPa SSE 16.9 km/h 23 km/h 58 % 0.0 mm open2300-1.11 W/m2
19:10 14.5 °C 6.3 °C 1016.1 hPa NE 9.8 km/h 16.9 km/h 58 % 0.0 mm open2300-1.11 W/m2
20:11 14.5 °C 6.3 °C 1016.1 hPa ESE 21.6 km/h 36.5 km/h 58 % 0.0 mm open2300-1.11 W/m2
21:10 14.5 °C 6.3 °C 1016.8 hPa SSE 10.3 km/h 20.3 km/h 58 % 0.0 mm open2300-1.11 W/m2
22:11 14.5 °C 6.3 °C 1017.5 hPa Calm   15 km/h 58 % 0.0 mm open2300-1.11 W/m2
23:10 14.6 °C 6.4 °C 1017.8 hPa SE 10.3 km/h 16.3 km/h 58 % 0.0 mm open2300-1.11 W/m2
Observations météo à CASSIS
WU-History script by Weather Underground - 1 mb